Time,TemperatureF,DewpointF,PressureIn,WindDirection,WindDirectionDegrees,WindSpeedMPH,WindSpeedGustMPH,Humidity,HourlyPrecipIn,Conditions,Clouds,dailyrainin,SolarRadiationWatts/m^2,SoftwareType,DateUTC
2013-03-10 00:01:00,58.0,56.0,-100.00,SE,142,5.0,15.0,94,0.00,,,0.21,1.000000,,2013-03-10 10:01:00,
2013-03-10 00:11:00,58.0,56.0,-100.00,SE,142,5.0,15.0,94,0.00,,,0.21,1.000000,,2013-03-10 10:11:00,
2013-03-10 00:21:00,58.0,56.0,-100.00,SE,142,5.0,15.0,94,0.00,,,0.21,1.000000,,2013-03-10 10:21:00,
2013-03-10 00:31:00,58.0,56.0,-100.00,SE,142,5.0,15.0,94,0.00,,,0.21,1.000000,,2013-03-10 10:31:00,
2013-03-10 01:01:00,59.0,58.0,-100.00,SSE,153,3.0,18.0,95,0.00,,,0.21,0.000000,,2013-03-10 11:01:00,
2013-03-10 01:11:00,59.0,58.0,-100.00,SSE,153,3.0,18.0,95,0.00,,,0.21,0.000000,,2013-03-10 11:11:00,
2013-03-10 01:21:00,59.0,58.0,-100.00,SSE,153,3.0,18.0,95,0.00,,,0.21,0.000000,,2013-03-10 11:21:00,
2013-03-10 01:31:00,59.0,58.0,-100.00,SSE,153,3.0,18.0,95,0.00,,,0.21,0.000000,,2013-03-10 11:31:00,
2013-03-10 04:01:00,59.0,57.0,-100.00,SSE,151,4.0,13.0,93,-99.99,,,0.21,0.000000,,2013-03-10 14:01:00,
2013-03-10 04:11:00,59.0,57.0,-100.00,SSE,151,4.0,13.0,93,-99.99,,,0.21,0.000000,,2013-03-10 14:11:00,
2013-03-10 04:21:00,59.0,57.0,-100.00,SSE,151,4.0,13.0,93,-99.99,,,0.21,0.000000,,2013-03-10 14:21:00,
2013-03-10 04:31:00,59.0,57.0,-100.00,SSE,151,4.0,13.0,93,-99.99,,,0.21,0.000000,,2013-03-10 14:31:00,
2013-03-10 05:01:00,58.0,58.0,-100.00,SSE,148,6.0,16.0,99,0.01,,,0.22,0.000000,,2013-03-10 15:01:00,
2013-03-10 05:11:00,58.0,58.0,-100.00,SSE,148,6.0,16.0,99,0.01,,,0.22,0.000000,,2013-03-10 15:11:00,
2013-03-10 05:21:00,58.0,58.0,-100.00,SSE,148,6.0,16.0,99,0.01,,,0.22,0.000000,,2013-03-10 15:21:00,
2013-03-10 05:31:00,58.0,58.0,-100.00,SSE,148,6.0,16.0,99,0.01,,,0.22,0.000000,,2013-03-10 15:31:00,
2013-03-10 06:01:00,58.0,58.0,-100.00,SSE,147,6.0,15.0,100,0.08,,,0.30,0.000000,,2013-03-10 16:01:00,
2013-03-10 06:11:00,58.0,58.0,-100.00,SSE,147,6.0,15.0,100,0.08,,,0.30,0.000000,,2013-03-10 16:11:00,
2013-03-10 06:21:00,58.0,58.0,-100.00,SSE,147,6.0,15.0,100,0.08,,,0.30,0.000000,,2013-03-10 16:21:00,
2013-03-10 06:31:00,58.0,58.0,-100.00,SSE,147,6.0,15.0,100,0.08,,,0.30,0.000000,,2013-03-10 16:31:00,
2013-03-10 08:01:00,61.0,61.0,-100.00,SSE,159,5.0,18.0,100,-99.99,,,0.17,8.000000,,2013-03-10 18:01:00,
2013-03-10 08:11:00,61.0,61.0,-100.00,SSE,159,5.0,18.0,100,-99.99,,,0.17,8.000000,,2013-03-10 18:11:00,
2013-03-10 08:21:00,61.0,61.0,-100.00,SSE,159,5.0,18.0,100,-99.99,,,0.17,8.000000,,2013-03-10 18:21:00,
2013-03-10 08:31:00,61.0,61.0,-100.00,SSE,159,5.0,18.0,100,-99.99,,,0.17,8.000000,,2013-03-10 18:31:00,
2013-03-10 09:01:00,61.0,61.0,-100.00,SE,145,8.0,18.0,100,0.17,,,0.34,35.000000,,2013-03-10 19:01:00,
2013-03-10 09:11:00,61.0,61.0,-100.00,SE,145,8.0,18.0,100,0.17,,,0.34,35.000000,,2013-03-10 19:11:00,
2013-03-10 09:21:00,61.0,61.0,-100.00,SE,145,8.0,18.0,100,0.17,,,0.34,35.000000,,2013-03-10 19:21:00,
2013-03-10 09:31:00,61.0,61.0,-100.00,SE,145,8.0,18.0,100,0.17,,,0.34,35.000000,,2013-03-10 19:31:00,
2013-03-10 10:02:00,61.0,61.0,-100.00,WSW,244,4.0,22.0,100,1.50,,,1.84,50.000000,,2013-03-10 20:02:00,
2013-03-10 10:12:00,61.0,61.0,-100.00,WSW,244,4.0,22.0,100,1.50,,,1.84,50.000000,,2013-03-10 20:12:00,
2013-03-10 10:22:00,61.0,61.0,-100.00,WSW,244,4.0,22.0,100,1.50,,,1.84,50.000000,,2013-03-10 20:22:00,
2013-03-10 10:32:00,61.0,61.0,-100.00,WSW,244,4.0,22.0,100,1.50,,,1.84,50.000000,,2013-03-10 20:32:00,
2013-03-10 10:53:00,62.0,62.0,-100.00,SSE,156,8.0,-999.0,100,0.15,,,1.99,,,2013-03-10 20:53:00,
2013-03-10 11:02:00,62.0,62.0,-100.00,SSE,156,8.0,-999.0,100,0.15,,,1.99,,,2013-03-10 21:02:00,
2013-03-10 11:12:00,62.0,62.0,-100.00,SSE,156,8.0,-999.0,100,0.15,,,1.99,,,2013-03-10 21:12:00,
2013-03-10 11:22:00,62.0,62.0,-100.00,SSE,156,8.0,-999.0,100,0.15,,,1.99,,,2013-03-10 21:22:00,
2013-03-10 11:32:00,62.0,62.0,-100.00,SSE,156,8.0,-999.0,100,0.15,,,1.99,,,2013-03-10 21:32:00,
2013-03-10 11:53:00,61.0,61.0,-100.00,WNW,297,4.0,-999.0,100,0.09,,,2.08,,,2013-03-10 21:53:00,
2013-03-10 12:02:00,61.0,61.0,-100.00,WNW,297,4.0,-999.0,100,0.09,,,2.08,,,2013-03-10 22:02:00,
2013-03-10 12:12:00,61.0,61.0,-100.00,WNW,297,4.0,-999.0,100,0.09,,,2.08,,,2013-03-10 22:12:00,
2013-03-10 12:22:00,61.0,61.0,-100.00,WNW,297,4.0,-999.0,100,0.09,,,2.08,,,2013-03-10 22:22:00,
2013-03-10 12:32:00,61.0,61.0,-100.00,WNW,297,4.0,-999.0,100,0.09,,,2.08,,,2013-03-10 22:32:00,
2013-03-10 12:53:00,59.0,59.0,-100.00,SSE,153,6.0,-999.0,100,0.42,,,2.50,,,2013-03-10 22:53:00,
2013-03-10 13:02:00,59.0,59.0,-100.00,SSE,153,6.0,-999.0,100,0.42,,,2.50,,,2013-03-10 23:02:00,
2013-03-10 13:12:00,59.0,59.0,-100.00,SSE,153,6.0,-999.0,100,0.42,,,2.50,,,2013-03-10 23:12:00,
2013-03-10 13:22:00,59.0,59.0,-100.00,SSE,153,6.0,-999.0,100,0.42,,,2.50,,,2013-03-10 23:22:00,
2013-03-10 13:32:00,59.0,59.0,-100.00,SSE,153,6.0,-999.0,100,0.42,,,2.50,,,2013-03-10 23:32:00,
2013-03-10 14:02:00,61.0,61.0,-100.00,SW,230,3.0,-999.0,100,0.45,,,2.93,,,2013-03-11 00:02:00,
2013-03-10 14:12:00,61.0,61.0,-100.00,SW,230,3.0,-999.0,100,0.45,,,2.93,,,2013-03-11 00:12:00,
2013-03-10 14:22:00,61.0,61.0,-100.00,SW,230,3.0,-999.0,100,0.45,,,2.93,,,2013-03-11 00:22:00,
2013-03-10 14:32:00,61.0,61.0,-100.00,SW,230,3.0,-999.0,100,0.45,,,2.93,,,2013-03-11 00:32:00,
2013-03-10 15:02:00,59.0,59.0,-100.00,SSE,164,4.0,15.0,100,0.46,,,3.39,118.000000,,2013-03-11 01:02:00,
2013-03-10 15:12:00,59.0,59.0,-100.00,SSE,164,4.0,15.0,100,0.46,,,3.39,118.000000,,2013-03-11 01:12:00,
2013-03-10 15:22:00,59.0,59.0,-100.00,SSE,164,4.0,15.0,100,0.46,,,3.39,118.000000,,2013-03-11 01:22:00,
2013-03-10 15:32:00,59.0,59.0,-100.00,SSE,164,4.0,15.0,100,0.46,,,3.39,118.000000,,2013-03-11 01:32:00,
2013-03-10 16:02:00,58.0,58.0,-100.00,SSE,149,5.0,14.0,100,0.14,,,3.53,95.000000,,2013-03-11 02:02:00,
2013-03-10 16:12:00,58.0,58.0,-100.00,SSE,149,5.0,14.0,100,0.14,,,3.53,95.000000,,2013-03-11 02:12:00,
2013-03-10 16:22:00,58.0,58.0,-100.00,SSE,149,5.0,14.0,100,0.14,,,3.53,95.000000,,2013-03-11 02:22:00,
2013-03-10 16:32:00,58.0,58.0,-100.00,SSE,149,5.0,14.0,100,0.14,,,3.53,95.000000,,2013-03-11 02:32:00,
2013-03-10 17:02:00,58.0,58.0,-100.00,SSE,153,4.0,14.0,100,0.12,,,3.63,68.000000,,2013-03-11 03:02:00,
2013-03-10 17:12:00,58.0,58.0,-100.00,SSE,153,4.0,14.0,100,0.12,,,3.63,68.000000,,2013-03-11 03:12:00,
2013-03-10 17:22:00,58.0,58.0,-100.00,SSE,153,4.0,14.0,100,0.12,,,3.63,68.000000,,2013-03-11 03:22:00,
2013-03-10 17:31:00,58.0,58.0,-100.00,SSE,153,4.0,14.0,100,0.12,,,3.63,68.000000,,2013-03-11 03:31:00,
2013-03-10 18:02:00,58.0,58.0,-100.00,SE,140,4.0,16.0,100,0.19,,,3.82,59.000000,,2013-03-11 04:02:00,
2013-03-10 18:12:00,58.0,58.0,-100.00,SE,140,4.0,16.0,100,0.19,,,3.82,59.000000,,2013-03-11 04:12:00,
2013-03-10 18:22:00,58.0,58.0,-100.00,SE,140,4.0,16.0,100,0.19,,,3.82,59.000000,,2013-03-11 04:22:00,
2013-03-10 18:32:00,58.0,58.0,-100.00,SE,140,4.0,16.0,100,0.19,,,3.82,59.000000,,2013-03-11 04:32:00,
2013-03-10 19:03:00,56.0,56.0,-100.00,SE,138,5.0,13.0,100,0.47,,,4.29,11.000000,,2013-03-11 05:03:00,
2013-03-10 19:11:00,56.0,56.0,-100.00,SE,138,5.0,13.0,100,0.47,,,4.29,11.000000,,2013-03-11 05:11:00,
2013-03-10 19:22:00,56.0,56.0,-100.00,SE,138,5.0,13.0,100,0.47,,,4.29,11.000000,,2013-03-11 05:22:00,
2013-03-10 19:32:00,56.0,56.0,-100.00,SE,138,5.0,13.0,100,0.47,,,4.29,11.000000,,2013-03-11 05:32:00,
2013-03-10 20:02:00,59.0,59.0,-100.00,South,187,4.0,17.0,100,0.20,,,4.48,0.000000,,2013-03-11 06:02:00,
2013-03-10 20:12:00,59.0,59.0,-100.00,South,187,4.0,17.0,100,0.20,,,4.48,0.000000,,2013-03-11 06:12:00,
2013-03-10 20:22:00,59.0,59.0,-100.00,South,187,4.0,17.0,100,0.20,,,4.48,0.000000,,2013-03-11 06:22:00,
2013-03-10 20:32:00,59.0,59.0,-100.00,South,187,4.0,17.0,100,0.20,,,4.48,0.000000,,2013-03-11 06:32:00,
2013-03-10 20:53:00,59.0,59.0,-100.00,NE,38,2.0,12.0,100,0.02,,,4.50,0.000000,,2013-03-11 06:53:00,
2013-03-10 21:02:00,59.0,59.0,-100.00,NE,38,2.0,12.0,100,0.02,,,4.50,0.000000,,2013-03-11 07:02:00,
2013-03-10 21:12:00,59.0,59.0,-100.00,NE,38,2.0,12.0,100,0.02,,,4.50,0.000000,,2013-03-11 07:12:00,
2013-03-10 21:21:00,59.0,59.0,-100.00,NE,38,2.0,12.0,100,0.02,,,4.50,0.000000,,2013-03-11 07:21:00,
2013-03-10 21:32:00,59.0,59.0,-100.00,NE,38,2.0,12.0,100,0.02,,,4.50,0.000000,,2013-03-11 07:32:00,
2013-03-10 22:02:00,59.0,59.0,-100.00,SE,143,2.0,7.0,100,0.05,,,4.55,0.000000,,2013-03-11 08:02:00,
2013-03-10 22:12:00,59.0,59.0,-100.00,SE,143,2.0,7.0,100,0.05,,,4.55,0.000000,,2013-03-11 08:12:00,
2013-03-10 22:22:00,59.0,59.0,-100.00,SE,143,2.0,7.0,100,0.05,,,4.55,0.000000,,2013-03-11 08:22:00,
2013-03-10 22:32:00,59.0,59.0,-100.00,SE,143,2.0,7.0,100,0.05,,,4.55,0.000000,,2013-03-11 08:32:00,
2013-03-10 22:52:00,60.0,60.0,-100.00,SE,132,1.0,5.0,100,0.02,,,4.57,0.000000,,2013-03-11 08:52:00,
2013-03-10 23:02:00,60.0,60.0,-100.00,SE,132,1.0,5.0,100,0.02,,,4.57,0.000000,,2013-03-11 09:02:00,
2013-03-10 23:12:00,60.0,60.0,-100.00,SE,132,1.0,5.0,100,0.02,,,4.57,0.000000,,2013-03-11 09:12:00,
2013-03-10 23:22:00,60.0,60.0,-100.00,SE,132,1.0,5.0,100,0.02,,,4.57,0.000000,,2013-03-11 09:22:00,
2013-03-10 23:32:00,60.0,60.0,-100.00,SE,132,1.0,5.0,100,0.02,,,4.57,0.000000,,2013-03-11 09:32:00,